Terminal Aerodrome Forecast
Issued by NWS

Home | Current Version | Previous Version | Text Only | Print | Product List | Glossary On
Versions: 1 2 3 4 5 6 7 8 9 10 11 12 13 14 15 16 17 18 19 20 21 22 23 24 25 26 27
000
FTUS45 KPSR 162300
TAFSDL
TAF
KSDL 162337Z 1700/1724 07010KT P6SM -SHRA BKN070 BKN100
     FM170100 09006KT P6SM VCSH SCT070 BKN100
     FM170800 12006KT P6SM SHRA BKN060 BKN100=

USA.gov is the U.S. government's official web portal to all federal, state and local government web resources and services.